Elmore, Alabama
Current Conditions -  °F | °C
As of 9:58 AM on Friday 24 Oct 2014 (Local Time) from KMXF Reporting Station
Broken Clouds Broken Clouds  
Wind Chill: 61°   Ceiling: 20000
Heat Index: 61°   Visibility: 10mi
Dew Point: 50°   Wind: 2mph
Humidity: 66%   Direction: 50°NE
Pressure: 30.1"   Gusts: NA
Location:  32.54°N, 86.31°W
Report Text: KMXF 241458Z AUTO 05002KT 10SM SCT170 BKN200 16/10 A3010 RMK AO2 SLP195 T01620099 50008
Loading
Personal Weather Stations






























Interactive Weather Map
Tropical Storm Tracking
New forecast layout! Learn more

10-Day Weather Forecast

Advertisements
Track Severe Weather on mobile